Columbia Metropolitan Airport Columbia US
ICAO: KCAE
IATA: CAE
Category: Large
Scheduled Services: Yes

Elevation: 236 ft
TransAlt. 18000 ft.

Airport Communications:
APP/DEP:124.15
ATIS:120.15
CLNC DEL:119.75
GND:121.9
ANDERSON RDO:122.65
TWR:119.5
UNICOM:122.95

KCAE Zoom In..

Runways:

(A) RW 05 length 8001 ft width 150 ft
ILS 108.95 / hdg 50

(B) RW 11 length 8601 ft width 150 ft
ILS 110.30 / hdg 110

(C) RW 23 length 8001 ft width 150 ft
---- / hdg 230

(D) RW 29 length 8601 ft width 150 ft
ILS 108.30 / hdg 290

Location; KCAE
Day. 20 / Time. 16.56 Zulu
* Altimeter: 30.14
* Temperature: 26° c. 78.8°f.
* Wind from: 160° Speed 08 kn.
Dewpoint: 23° c.
Visibility: 10 Statute Miles.
Clouds: Scattered 2100 ft.
Clouds: Broken 2600 ft.
Clouds: Overcast 1000 ft.
Conditions: Thunderstorm.Conditions: Thunderstorm.Conditions: Cumulonimbus.

KCAE 201656Z 16008KT 10SM TS SCT021 BKN026CB OVC100 26/23 A3014 RMK AO2 LTG DSNT S RAB01E18B38E49 TSB49 SLP205 OCNL LTGIC S-SE TS S-SE MOV NE CB DSNT N AND S P0000 T02610228


Wind From 160°
Speed 08 kn.

 
 
jpsmedia.com for Web Design SOUNDCLOUD worldairports.se 2018   terms of use